Time;durP1;ratioP1;P1;durP2;ratioP2;P2;SDS_P1;SDS_P2;PMS_P1;PMS_P2;Temp;Humidity;BMP_temperature;BMP_pressure;BME280_temperature;BME280_humidity;BME280_pressure;Samples;Min_cycle;Max_cycle;Signal;HPM_P1;HPM_P2
2022/05/02 00:00:08;;;;;;;11.68;6.28;;;;;;;7.46;75.30;100960.22;5103557;28;20020;-62
2022/05/02 00:02:37;;;;;;;10.45;5.20;;;;;;;7.48;75.21;100963.66;5103252;28;20080;-64
2022/05/02 00:05:04;;;;;;;11.40;5.32;;;;;;;7.45;75.46;100954.16;5103463;28;20020;-63
2022/05/02 00:07:29;;;;;;;8.95;5.15;;;;;;;7.43;75.50;100956.72;5103159;28;20020;-63
2022/05/02 00:09:54;;;;;;;9.98;5.03;;;;;;;7.41;75.23;100950.66;5102649;28;20047;-63
2022/05/02 00:12:19;;;;;;;9.63;4.90;;;;;;;7.42;75.44;100952.44;5103356;28;20040;-62
2022/05/02 00:14:45;;;;;;;8.68;4.70;;;;;;;7.41;75.22;100948.09;5103188;28;20495;-64
2022/05/02 00:17:10;;;;;;;10.25;4.93;;;;;;;7.40;75.40;100945.47;5103282;28;20043;-61
2022/05/02 00:19:35;;;;;;;12.82;4.55;;;;;;;7.41;75.39;100942.06;5103160;28;20023;-63
2022/05/02 00:22:02;;;;;;;13.27;4.32;;;;;;;7.40;75.32;100933.44;5103034;28;20020;-63
2022/05/02 00:24:27;;;;;;;7.90;4.03;;;;;;;7.41;75.22;100934.31;5103202;28;20024;-62
2022/05/02 00:26:53;;;;;;;11.63;4.32;;;;;;;7.41;75.05;100930.00;5103101;28;20051;-62
2022/05/02 00:29:18;;;;;;;7.18;4.13;;;;;;;7.40;75.04;100930.88;5103216;28;20031;-62
2022/05/02 00:31:45;;;;;;;7.03;4.28;;;;;;;7.40;74.87;100933.44;5102860;28;20099;-62
2022/05/02 00:34:12;;;;;;;5.53;3.60;;;;;;;7.39;74.72;100936.00;5103017;28;20027;-62
2022/05/02 00:36:37;;;;;;;7.72;3.17;;;;;;;7.37;74.61;100933.41;5102715;28;20059;-61
2022/05/02 00:39:02;;;;;;;4.18;2.33;;;;;;;7.40;74.39;100922.22;5103514;28;20016;-62
2022/05/02 00:41:28;;;;;;;6.18;2.65;;;;;;;7.41;74.15;100919.66;5103093;28;20027;-62
2022/05/02 00:43:54;;;;;;;4.10;2.67;;;;;;;7.44;74.03;100931.78;5103021;28;20021;-63
2022/05/02 00:46:21;;;;;;;5.10;3.03;;;;;;;7.45;73.68;100920.59;5102993;28;20499;-62
2022/05/02 00:48:47;;;;;;;6.15;2.88;;;;;;;7.47;73.54;100923.19;5103036;28;20048;-62
2022/05/02 00:51:14;;;;;;;9.35;3.20;;;;;;;7.49;73.38;100924.09;5102860;28;20022;-61
2022/05/02 00:53:41;;;;;;;4.88;2.90;;;;;;;7.50;73.21;100920.63;5102897;28;20293;-62
2022/05/02 00:56:08;;;;;;;4.68;3.35;;;;;;;7.50;73.11;100918.94;5102894;28;20045;-62
2022/05/02 00:58:35;;;;;;;8.30;4.65;;;;;;;7.49;73.14;100913.75;5103001;28;20028;-62
2022/05/02 01:01:01;;;;;;;7.28;3.78;;;;;;;7.49;73.28;100913.75;5102948;28;20495;-63
2022/05/02 01:03:26;;;;;;;11.95;4.68;;;;;;;7.50;73.38;100912.88;5102983;28;20028;-63
2022/05/02 01:08:37;;;;;;;9.13;4.70;;;;;;;7.48;73.57;100906.81;5103058;28;20031;-62
2022/05/02 01:11:03;;;;;;;10.18;4.53;;;;;;;7.45;73.60;100902.50;5102758;28;20020;-63
2022/05/02 01:13:35;;;;;;;13.15;5.65;;;;;;;7.43;73.60;100904.19;5102847;28;20055;-63
2022/05/02 01:16:07;;;;;;;12.52;6.03;;;;;;;7.46;73.97;100896.47;5102850;28;20063;-61
2022/05/02 01:18:32;;;;;;;8.88;6.30;;;;;;;7.46;74.18;100898.22;5102804;28;20039;-62
2022/05/02 01:20:58;;;;;;;10.73;5.28;;;;;;;7.42;74.30;100893.00;5104263;28;20055;-62
2022/05/02 01:23:24;;;;;;;12.63;6.07;;;;;;;7.41;74.56;100893.84;5106632;28;20029;-62
2022/05/02 01:25:49;;;;;;;13.32;6.82;;;;;;;7.39;74.59;100890.38;5106283;28;20024;-61
2022/05/02 01:28:14;;;;;;;12.55;5.82;;;;;;;7.36;74.76;100889.47;5106298;28;20087;-62
2022/05/02 01:30:40;;;;;;;9.30;5.85;;;;;;;7.32;74.92;100888.56;5106381;28;20035;-61
2022/05/02 01:33:05;;;;;;;13.45;6.68;;;;;;;7.25;74.95;100887.59;5106281;28;20376;-61
2022/05/02 01:35:31;;;;;;;11.05;6.10;;;;;;;7.22;74.99;100884.13;5106360;28;20016;-61
2022/05/02 01:37:56;;;;;;;12.10;6.70;;;;;;;7.13;75.05;100883.16;5106239;28;20411;-62
2022/05/02 01:40:21;;;;;;;10.45;6.95;;;;;;;7.04;75.26;100881.34;5106437;28;20031;-63
2022/05/02 01:42:47;;;;;;;11.68;6.88;;;;;;;6.94;75.38;100879.44;5106126;28;20020;-62
2022/05/02 01:45:12;;;;;;;13.13;7.22;;;;;;;6.92;75.61;100879.44;5106382;28;20051;-63
2022/05/02 01:47:37;;;;;;;16.17;7.53;;;;;;;6.90;75.78;100868.19;5105693;28;20083;-61
2022/05/02 01:50:03;;;;;;;14.05;8.95;;;;;;;6.81;75.95;100863.78;5106078;28;20038;-61
2022/05/02 01:52:29;;;;;;;17.42;8.52;;;;;;;6.77;76.13;100863.72;5105596;28;20031;-62
2022/05/02 01:54:54;;;;;;;13.30;7.15;;;;;;;6.74;76.41;100867.09;5105951;28;20024;-62
2022/05/02 01:57:19;;;;;;;16.05;7.30;;;;;;;6.65;76.66;100860.13;5105811;28;20028;-62
2022/05/02 01:59:45;;;;;;;12.82;8.45;;;;;;;6.67;76.87;100853.28;5105977;28;20565;-64
2022/05/02 02:02:10;;;;;;;14.77;8.52;;;;;;;6.61;77.02;100845.44;5105648;28;20027;-64
2022/05/02 02:07:19;;;;;;;17.55;8.82;;;;;;;6.56;77.59;100849.66;5105622;28;20031;-63
2022/05/02 02:09:44;;;;;;;14.30;8.05;;;;;;;6.52;77.68;100855.59;5105770;28;20051;-62
2022/05/02 02:12:10;;;;;;;17.77;9.68;;;;;;;6.51;77.52;100838.38;5105556;28;20043;-63
2022/05/02 02:14:35;;;;;;;15.77;9.27;;;;;;;6.51;77.68;100849.59;5105543;28;20086;-63
2022/05/02 02:17:00;;;;;;;18.40;10.07;;;;;;;6.51;77.84;100843.56;5105341;28;20028;-62
2022/05/02 02:19:26;;;;;;;17.95;9.73;;;;;;;6.48;77.76;100846.09;5105596;28;20080;-63
2022/05/02 02:21:51;;;;;;;17.27;10.98;;;;;;;6.47;78.11;100836.63;5105263;28;20034;-62
2022/05/02 02:24:17;;;;;;;18.23;10.68;;;;;;;6.44;77.95;100827.09;5105278;28;20504;-64
2022/05/02 02:26:43;;;;;;;16.27;9.63;;;;;;;6.42;78.22;100829.66;5105277;28;20103;-61
2022/05/02 02:29:08;;;;;;;14.90;9.73;;;;;;;6.40;78.50;100828.78;5105294;28;20553;-63
2022/05/02 02:31:33;;;;;;;19.95;11.27;;;;;;;6.41;78.64;100821.91;5104881;28;20021;-63
2022/05/02 02:33:59;;;;;;;18.27;11.10;;;;;;;6.45;78.77;100823.69;5104664;28;20028;-64
2022/05/02 02:36:24;;;;;;;21.38;11.80;;;;;;;6.42;78.93;100824.50;5104994;28;20074;-63
2022/05/02 02:38:49;;;;;;;24.88;11.77;;;;;;;6.42;78.96;100826.22;5105094;28;20020;-63
2022/05/02 02:41:15;;;;;;;22.95;12.20;;;;;;;6.44;78.99;100824.53;5105110;28;20016;-63
2022/05/02 02:43:40;;;;;;;18.98;12.07;;;;;;;6.45;79.02;100823.69;5104960;28;20024;-63
2022/05/02 02:46:05;;;;;;;21.38;12.50;;;;;;;6.49;79.00;100822.88;5103592;28;20019;-63
2022/05/02 02:48:31;;;;;;;28.45;13.02;;;;;;;6.47;78.97;100823.72;5104433;28;20100;-63
2022/05/02 02:51:00;;;;;;;21.70;12.20;;;;;;;6.51;79.09;100820.34;5103111;28;20020;-62
2022/05/02 02:53:25;;;;;;;17.70;11.80;;;;;;;6.50;79.34;100816.03;5105051;28;20020;-63
2022/05/02 02:55:51;;;;;;;19.20;12.23;;;;;;;6.55;79.50;100816.97;5104544;28;20024;-63
2022/05/02 02:58:16;;;;;;;26.10;13.60;;;;;;;6.57;79.68;100812.69;5104617;28;20424;-62
2022/05/02 03:00:41;;;;;;;25.00;11.73;;;;;;;6.59;79.64;100804.97;5104775;28;20020;-63
2022/05/02 03:03:07;;;;;;;24.70;14.07;;;;;;;6.62;79.65;100815.31;5104675;28;20031;-62
2022/05/02 03:08:17;;;;;;;23.30;12.38;;;;;;;6.69;79.60;100810.28;5104586;28;20031;-63
2022/05/02 03:10:42;;;;;;;24.58;14.00;;;;;;;6.75;79.66;100806.06;5104215;28;20032;-62
2022/05/02 03:13:08;;;;;;;28.65;14.75;;;;;;;6.79;79.62;100802.66;5104498;28;20028;-63
2022/05/02 03:15:33;;;;;;;21.48;13.55;;;;;;;6.82;79.53;100806.16;5104232;28;20464;-62
2022/05/02 03:17:58;;;;;;;31.17;15.57;;;;;;;6.87;79.68;100802.78;5104150;28;20120;-63
2022/05/02 03:20:24;;;;;;;31.77;17.35;;;;;;;6.91;79.94;100802.84;5103995;28;20016;-63
2022/05/02 03:22:49;;;;;;;43.05;17.10;;;;;;;6.97;80.04;100794.31;5104063;28;20061;-63
2022/05/02 03:25:15;;;;;;;36.45;17.88;;;;;;;7.04;80.14;100803.00;5103991;28;20036;-64
2022/05/02 03:27:40;;;;;;;28.45;15.40;;;;;;;7.10;80.87;100779.84;5103858;28;20028;-64
2022/05/02 03:30:06;;;;;;;33.20;15.10;;;;;;;7.15;82.11;100777.31;5103738;28;20088;-63
2022/05/02 03:32:31;;;;;;;29.67;16.25;;;;;;;7.24;82.58;100784.28;5103826;28;20030;-63
2022/05/02 03:34:57;;;;;;;41.13;17.05;;;;;;;7.30;82.64;100769.72;5103725;28;20107;-63
2022/05/02 03:37:22;;;;;;;32.28;15.82;;;;;;;7.38;82.81;100772.38;5103758;28;20028;-63
2022/05/02 03:39:48;;;;;;;34.72;16.73;;;;;;;7.46;82.74;100771.63;5103971;28;20016;-63
2022/05/02 03:42:13;;;;;;;35.22;18.38;;;;;;;7.54;82.37;100776.00;5103752;28;20408;-63
2022/05/02 03:44:38;;;;;;;31.58;15.90;;;;;;;7.60;82.79;100775.22;5102943;28;20047;-63
2022/05/02 03:47:04;;;;;;;27.75;15.13;;;;;;;7.69;83.30;100774.44;5102301;28;20024;-62
2022/05/02 03:49:29;;;;;;;23.80;13.40;;;;;;;7.83;83.45;100771.13;5103555;28;20044;-63
2022/05/02 03:51:54;;;;;;;21.52;13.00;;;;;;;8.03;83.63;100769.56;5103283;28;20035;-63
2022/05/02 03:54:20;;;;;;;20.27;10.55;;;;;;;8.30;83.79;100765.44;5103560;28;20028;-63
2022/05/02 03:56:45;;;;;;;14.73;8.90;;;;;;;8.58;84.42;100772.53;5103616;28;20196;-62
2022/05/02 03:59:11;;;;;;;17.38;8.23;;;;;;;8.91;84.80;100767.53;5103410;28;20031;-63
2022/05/02 04:01:39;;;;;;;19.20;7.65;;;;;;;9.36;85.02;100772.00;5103330;28;20020;-62
2022/05/02 04:04:04;;;;;;;14.65;7.75;;;;;;;9.78;84.40;100772.94;5103793;28;20028;-62
2022/05/02 04:06:30;;;;;;;14.57;7.30;;;;;;;10.20;83.16;100771.19;5103099;28;20074;-64
2022/05/02 04:08:55;;;;;;;11.85;6.75;;;;;;;10.50;82.06;100766.84;5103606;28;20028;-63
2022/05/02 04:11:20;;;;;;;11.77;7.32;;;;;;;10.79;81.45;100760.72;5103189;28;20035;-63
2022/05/02 04:13:46;;;;;;;11.23;6.15;;;;;;;11.00;79.89;100756.28;5103430;28;20471;-65
2022/05/02 04:16:11;;;;;;;10.95;6.25;;;;;;;11.21;78.32;100760.53;5103503;28;20028;-64
2022/05/02 04:18:37;;;;;;;11.95;5.43;;;;;;;11.40;77.49;100750.91;5103500;28;20077;-64
2022/05/02 04:21:02;;;;;;;11.43;6.03;;;;;;;11.55;75.47;100754.25;5102994;28;20028;-62
2022/05/02 04:23:27;;;;;;;10.73;4.65;;;;;;;11.64;72.59;100753.31;5103254;28;20024;-62
2022/05/02 04:25:53;;;;;;;6.00;3.83;;;;;;;11.51;70.97;100753.41;5103085;28;20080;-62
2022/05/02 04:28:18;;;;;;;6.03;3.80;;;;;;;11.38;69.30;100751.75;5103383;28;20031;-64
2022/05/02 04:30:44;;;;;;;6.40;3.90;;;;;;;11.35;69.16;100751.78;5103240;28;20379;-63
2022/05/02 04:33:09;;;;;;;6.47;2.72;;;;;;;11.48;68.99;100748.25;5103385;28;20020;-64
2022/05/02 04:35:35;;;;;;;6.38;2.88;;;;;;;11.87;67.44;100747.94;5103209;28;20127;-66
2022/05/02 04:38:01;;;;;;;4.05;2.80;;;;;;;12.29;66.79;100746.72;5103015;28;20027;-68
2022/05/02 04:40:26;;;;;;;7.00;2.80;;;;;;;12.84;66.09;100746.97;5102966;28;20016;-68
2022/05/02 04:42:51;;;;;;;5.88;2.50;;;;;;;13.39;63.98;100739.28;5103063;28;20368;-67
2022/05/02 04:45:17;;;;;;;4.55;2.55;;;;;;;14.08;62.48;100745.19;5103041;28;20039;-66
2022/05/02 04:47:42;;;;;;;4.68;2.40;;;;;;;14.63;60.64;100748.50;5102676;28;20156;-71
2022/05/02 04:50:08;;;;;;;7.53;2.83;;;;;;;15.21;59.25;100734.28;5103113;28;20384;-70
2022/05/02 04:52:33;;;;;;;4.45;2.20;;;;;;;15.81;56.39;100740.72;5102869;28;20032;-68
2022/05/02 04:54:58;;;;;;;4.82;2.08;;;;;;;16.28;55.61;100727.31;5103232;28;20410;-69
2022/05/02 04:57:24;;;;;;;4.13;1.92;;;;;;;16.87;54.49;100731.81;5107519;28;20046;-68
2022/05/02 04:59:49;;;;;;;7.20;2.25;;;;;;;17.52;51.88;100736.88;5107131;28;20492;-69
2022/05/02 05:02:15;;;;;;;3.75;1.60;;;;;;;17.96;51.06;100736.28;5107288;28;20020;-68
2022/05/02 05:04:40;;;;;;;4.10;1.92;;;;;;;18.49;47.79;100737.09;5107364;28;20076;-68
2022/05/02 05:07:05;;;;;;;3.40;1.80;;;;;;;18.75;47.16;100743.19;5106804;28;20072;-66
2022/05/02 05:09:31;;;;;;;5.93;1.60;;;;;;;19.07;46.44;100733.19;5106914;28;20384;-69
2022/05/02 05:12:24;;;;;;;6.72;1.60;;;;;;;19.24;44.36;100729.06;5107020;28;20032;-70
2022/05/02 05:18:25;;;;;;;5.15;1.95;;;;;;;19.45;42.69;100726.50;5106730;28;20039;-71
2022/05/02 05:21:07;;;;;;;4.93;1.70;;;;;;;19.39;41.45;100727.56;5106346;28;20153;-70
2022/05/02 05:23:48;;;;;;;4.00;2.08;;;;;;;19.33;41.11;100719.94;5106686;28;20057;-70
2022/05/02 05:26:26;;;;;;;11.70;2.08;;;;;;;19.53;41.31;100719.13;5106543;28;20036;-69
2022/05/02 05:29:12;;;;;;;4.70;1.95;;;;;;;19.75;39.95;100715.59;5106456;28;20039;-70
2022/05/02 05:31:56;;;;;;;7.57;2.03;;;;;;;19.77;39.25;100708.50;5106325;28;20039;-70
2022/05/02 05:34:50;;;;;;;7.05;2.45;;;;;;;19.64;39.11;100716.06;5106653;28;20084;-70
2022/05/02 05:37:36;;;;;;;6.20;2.50;;;;;;;19.45;38.10;100713.31;5094582;28;20575;-69
2022/05/02 05:40:11;;;;;;;4.55;1.63;;;;;;;19.29;38.85;100716.59;5106340;28;20422;-68
2022/05/02 05:43:07;;;;;;;4.90;1.90;;;;;;;19.02;39.16;100703.59;5106365;28;20024;-69
2022/05/02 05:46:04;;;;;;;6.22;1.90;;;;;;;18.61;39.80;100716.53;5106054;28;20028;-69
2022/05/02 05:48:45;;;;;;;5.88;2.47;;;;;;;18.47;40.53;100715.25;5106009;28;20052;-68
2022/05/02 05:51:22;;;;;;;4.47;3.10;;;;;;;18.31;40.87;100709.72;5105562;28;20020;-66
2022/05/02 05:53:53;;;;;;;5.20;3.28;;;;;;;18.26;41.16;100716.91;5106018;28;20035;-69
2022/05/02 05:56:40;;;;;;;4.80;2.85;;;;;;;17.94;41.74;100711.81;5105781;28;20024;-68
2022/05/02 05:59:09;;;;;;;4.72;2.80;;;;;;;17.64;42.05;100706.72;5106010;28;20036;-68
2022/05/02 06:02:00;;;;;;;4.82;2.72;;;;;;;17.11;43.17;100697.91;5105575;28;20024;-67
2022/05/02 06:04:30;;;;;;;9.48;3.00;;;;;;;16.92;43.93;100706.31;5105870;28;20020;-70
2022/05/02 06:06:58;;;;;;;6.70;2.50;;;;;;;16.97;43.89;100700.03;5104454;28;20032;-70
2022/05/02 06:09:27;;;;;;;6.80;2.90;;;;;;;16.79;44.46;100696.19;5105854;28;20020;-70
2022/05/02 06:11:57;;;;;;;5.95;2.10;;;;;;;17.13;44.75;100694.34;5105336;28;20412;-71
2022/05/02 06:14:26;;;;;;;9.40;2.30;;;;;;;17.60;43.85;100708.59;5105978;28;20016;-70
2022/05/02 06:19:39;;;;;;;5.68;2.42;;;;;;;18.11;43.11;100698.13;5105711;28;20043;-70
2022/05/02 06:22:07;;;;;;;7.28;1.88;;;;;;;18.47;42.30;100698.66;5105372;28;20135;-70
2022/05/02 06:24:36;;;;;;;4.07;1.92;;;;;;;18.76;40.96;100684.41;5105344;28;20084;-69
2022/05/02 06:27:04;;;;;;;6.40;1.65;;;;;;;18.86;40.06;100694.56;5105061;28;20448;-70
2022/05/02 06:29:32;;;;;;;7.95;1.67;;;;;;;18.69;40.35;100688.19;5105162;28;20024;-70
2022/05/02 06:32:00;;;;;;;7.55;1.48;;;;;;;18.81;40.78;100690.34;5105093;28;20108;-68
2022/05/02 06:34:28;;;;;;;3.63;1.92;;;;;;;18.60;39.24;100693.78;5105330;28;20347;-68
2022/05/02 06:37:11;;;;;;;2.83;2.05;;;;;;;18.21;39.06;100688.19;5105213;28;20020;-68
2022/05/02 06:40:01;;;;;;;3.35;1.52;;;;;;;17.78;38.34;100686.09;5105421;28;20039;-68
2022/05/02 06:42:39;;;;;;;3.67;1.00;;;;;;;17.26;36.90;100670.31;5105315;28;20027;-68
2022/05/02 06:45:29;;;;;;;3.33;1.33;;;;;;;17.23;37.54;100679.16;5105006;28;20028;-69
2022/05/02 06:48:18;;;;;;;3.50;1.25;;;;;;;17.46;35.71;100685.41;5104680;28;20156;-67
2022/05/02 06:50:55;;;;;;;2.78;1.27;;;;;;;17.58;36.39;100684.16;5104878;28;20056;-68
2022/05/02 06:53:57;;;;;;;3.53;0.80;;;;;;;17.78;32.72;100674.75;5104784;28;20118;-69
2022/05/02 06:56:29;;;;;;;2.50;0.90;;;;;;;17.63;33.53;100682.25;5104960;28;20099;-69
2022/05/02 06:59:22;;;;;;;2.88;0.95;;;;;;;17.53;33.41;100686.94;5104917;28;20384;-69
2022/05/02 07:01:55;;;;;;;2.05;0.63;;;;;;;17.78;33.96;100680.84;5104935;28;20024;-68
2022/05/02 07:04:52;;;;;;;2.28;0.73;;;;;;;17.82;33.77;100678.97;5104943;28;20070;-69
2022/05/02 07:07:39;;;;;;;2.65;0.80;;;;;;;18.05;33.52;100678.16;5104178;28;20024;-67
2022/05/02 07:10:08;;;;;;;5.50;0.98;;;;;;;17.99;34.31;100675.75;5104175;28;20095;-70
2022/05/02 07:12:53;;;;;;;3.65;1.08;;;;;;;18.05;34.71;100683.41;5104271;28;20032;-70
2022/05/02 07:15:31;;;;;;;1.77;0.80;;;;;;;17.99;33.55;100672.31;5104708;28;20028;-69
2022/05/02 07:18:05;;;;;;;2.42;0.80;;;;;;;17.63;34.52;100676.13;5104227;28;20024;-69
2022/05/02 07:20:48;;;;;;;2.88;0.90;;;;;;;17.55;35.41;100674.63;5104578;28;20103;-70
2022/05/02 07:23:35;;;;;;;5.78;1.23;;;;;;;17.88;35.86;100680.53;5104277;28;20102;-69
2022/05/02 07:26:07;;;;;;;2.55;0.73;;;;;;;18.12;34.46;100677.97;5104342;28;20039;-69
2022/05/02 07:28:38;;;;;;;;;;;;;;;17.82;35.46;100668.47;5105041;28;20106;-69
2022/05/02 07:31:04;;;;;;;7.13;1.13;;;;;;;17.43;37.47;100664.53;5104289;28;19935;-70
2022/05/02 07:33:35;;;;;;;4.32;1.02;;;;;;;17.76;37.46;100664.31;5104299;28;20468;-70
2022/05/02 07:36:02;;;;;;;6.05;1.30;;;;;;;18.14;37.14;100666.53;5104416;28;20028;-70
2022/05/02 07:38:31;;;;;;;5.78;1.50;;;;;;;18.17;36.42;100673.44;5104124;28;20111;-69
2022/05/02 07:43:47;;;;;;;6.57;1.20;;;;;;;17.68;37.41;100671.59;5104130;28;20402;-69
2022/05/02 07:46:16;;;;;;;3.70;1.05;;;;;;;17.46;37.55;100669.66;5103877;28;20020;-68
2022/05/02 07:48:42;;;;;;;7.05;1.38;;;;;;;17.22;38.31;100653.84;5103468;28;20051;-69
2022/05/02 07:51:09;;;;;;;3.53;1.20;;;;;;;17.34;38.46;100656.06;5104118;28;20142;-68
2022/05/02 07:53:39;;;;;;;5.50;1.05;;;;;;;17.30;38.51;100664.94;5103785;28;20035;-68
2022/05/02 07:56:10;;;;;;;8.80;1.50;;;;;;;17.37;38.77;100662.09;5102403;28;20084;-67
2022/05/02 07:58:40;;;;;;;7.55;1.30;;;;;;;17.45;38.89;100662.72;5103743;28;20046;-69
2022/05/02 08:01:05;;;;;;;8.38;1.48;;;;;;;17.78;37.93;100662.47;5103315;28;20613;-68
2022/05/02 08:03:30;;;;;;;5.82;1.33;;;;;;;17.68;38.03;100653.22;5103241;28;20067;-68
2022/05/02 08:06:11;;;;;;;2.03;1.00;;;;;;;17.33;38.29;100659.56;5103116;28;20111;-68
2022/05/02 08:08:51;;;;;;;4.80;1.80;;;;;;;16.80;39.47;100655.97;5101509;28;20515;-67
2022/05/02 08:11:47;;;;;;;6.22;1.20;;;;;;;16.62;40.02;100653.88;5103121;28;20016;-68
2022/05/02 08:14:16;;;;;;;3.42;0.90;;;;;;;16.77;40.25;100655.19;5103135;28;20024;-70
2022/05/02 08:16:59;;;;;;;5.22;1.17;;;;;;;17.04;39.63;100645.63;5103081;28;20048;-70
2022/05/02 08:19:24;;;;;;;;;;;;;;;17.39;39.14;100649.78;5103599;28;20032;-70
2022/05/02 08:28:30;;;;;;;3.17;1.30;;;;;;;18.59;36.80;100648.25;5020896;28;20130;-69
2022/05/02 08:31:34;;;;;;;6.50;1.42;;;;;;;18.74;36.09;100654.66;5022802;28;20044;-69
2022/05/02 08:34:08;;;;;;;5.40;1.50;;;;;;;18.65;36.06;100634.84;5009935;28;20041;-69
2022/05/02 08:36:46;;;;;;;7.82;1.30;;;;;;;18.75;35.57;100647.63;5008190;28;20032;-68
2022/05/02 08:39:18;;;;;;;9.93;2.17;;;;;;;18.51;36.50;100632.75;5024966;28;20038;-68
2022/05/02 08:41:55;;;;;;;5.38;0.80;;;;;;;18.76;35.63;100629.16;5024714;28;20025;-67
2022/05/02 08:44:28;;;;;;;4.80;1.50;;;;;;;18.69;36.22;100640.88;5024820;28;20540;-68
2022/05/02 08:47:35;;;;;;;17.67;2.45;;;;;;;18.81;35.83;100624.59;5024619;28;20045;-67
2022/05/02 08:50:06;;;;;;;7.05;1.67;;;;;;;18.62;36.07;100627.09;5013302;28;20087;-67
2022/05/02 08:52:45;;;;;;;6.17;1.70;;;;;;;18.58;35.92;100641.25;5024687;28;20061;-67
2022/05/02 08:55:16;;;;;;;9.43;2.17;;;;;;;18.50;35.84;100619.69;5024631;28;20271;-68
2022/05/02 08:57:50;;;;;;;8.00;1.97;;;;;;;18.29;36.63;100623.03;5024438;28;20409;-67
2022/05/02 09:00:27;;;;;;;6.47;1.15;;;;;;;18.51;35.52;100629.25;5024703;28;20677;-68
2022/05/02 09:03:14;;;;;;;5.13;1.20;;;;;;;18.50;34.80;100614.41;5024504;28;20127;-68
2022/05/02 09:05:48;;;;;;;1.23;0.60;;;;;;;18.15;33.63;100628.81;5088206;28;20476;-67
2022/05/02 09:08:40;;;;;;;6.18;1.33;;;;;;;18.09;34.26;100622.00;5106759;28;20040;-67
2022/05/02 09:11:32;;;;;;;8.32;1.50;;;;;;;18.37;33.95;100624.53;5106878;28;20016;-68
2022/05/02 09:14:31;;;;;;;4.88;1.20;;;;;;;18.99;33.48;100616.03;5106967;28;20036;-68
2022/05/02 09:17:34;;;;;;;6.35;1.40;;;;;;;19.26;33.05;100616.69;5106920;28;20447;-68
2022/05/02 09:20:24;;;;;;;6.70;1.48;;;;;;;19.67;32.90;100602.69;5106774;28;20028;-69
2022/05/02 09:23:11;;;;;;;9.68;1.60;;;;;;;20.03;32.37;100616.94;5106658;28;20573;-68
2022/05/02 09:25:49;;;;;;;6.90;1.65;;;;;;;20.25;31.79;100621.25;5106903;28;20036;-68
2022/05/02 09:28:22;;;;;;;7.05;2.38;;;;;;;19.93;31.99;100608.59;5106815;28;20088;-67
2022/05/02 09:31:11;;;;;;;8.38;1.80;;;;;;;19.83;31.58;100617.81;5106655;28;20016;-68
2022/05/02 09:33:44;;;;;;;4.82;1.40;;;;;;;19.77;31.53;100608.41;5106275;28;20388;-69
2022/05/02 09:36:09;;;;;;;6.47;1.20;;;;;;;19.89;31.86;100604.34;5105248;28;20161;-68
2022/05/02 09:39:06;;;;;;;11.68;1.38;;;;;;;20.26;31.96;100601.00;5106173;28;20028;-68
2022/05/02 09:41:37;;;;;;;7.53;1.30;;;;;;;21.04;30.91;100605.28;5105551;28;20056;-68
2022/05/02 09:50:11;;;;;;;5.68;1.40;;;;;;;20.96;29.49;100594.25;5106056;28;20463;-67
2022/05/02 09:52:54;;;;;;;8.35;1.40;;;;;;;20.55;30.10;100601.44;5104754;28;20487;-68
2022/05/02 09:58:46;;;;;;;7.32;1.45;;;;;;;20.91;30.05;100599.72;5106264;28;20062;-68
2022/05/02 10:01:21;;;;;;;5.13;1.55;;;;;;;21.10;29.90;100602.34;5105771;28;20040;-68
2022/05/02 10:04:18;;;;;;;8.60;1.58;;;;;;;21.00;30.02;100604.59;5106043;28;20082;-67
2022/05/02 10:06:55;;;;;;;7.40;2.10;;;;;;;21.32;29.76;100590.69;5105572;28;20072;-67
2022/05/02 10:09:33;;;;;;;7.85;2.03;;;;;;;21.51;29.72;100598.53;5105795;28;20023;-68
2022/05/02 10:12:10;;;;;;;5.97;1.40;;;;;;;21.61;29.45;100593.63;5105560;28;20024;-68
2022/05/02 10:14:48;;;;;;;7.70;1.85;;;;;;;21.64;29.04;100593.47;5105853;28;20047;-68
2022/05/02 10:17:16;;;;;;;10.40;1.50;;;;;;;21.41;29.20;100586.72;5105751;28;20501;-68
2022/05/02 10:20:00;;;;;;;5.53;1.38;;;;;;;21.38;29.22;100593.03;5105808;28;20260;-69
2022/05/02 10:22:28;;;;;;;11.45;1.63;;;;;;;21.38;28.75;100585.09;5105524;28;20033;-67
2022/05/02 10:25:10;;;;;;;4.68;0.70;;;;;;;20.80;28.58;100584.41;5105947;28;20039;-68
2022/05/02 10:27:44;;;;;;;4.80;1.05;;;;;;;19.76;29.66;100579.50;5105702;28;20044;-68
2022/05/02 10:30:12;;;;;;;7.38;1.48;;;;;;;19.27;31.19;100584.19;5105606;28;20023;-68
2022/05/02 10:32:56;;;;;;;9.10;2.03;;;;;;;19.49;31.07;100569.25;5105286;28;20083;-68
2022/05/02 10:35:24;;;;;;;3.30;1.00;;;;;;;19.47;30.28;100585.13;5105538;28;20028;-67
2022/05/02 10:38:00;;;;;;;8.85;1.83;;;;;;;19.17;29.90;100570.56;5105052;28;20046;-67
2022/05/02 10:40:37;;;;;;;7.03;1.27;;;;;;;19.01;30.65;100578.19;5103994;28;20020;-67
2022/05/02 10:43:06;;;;;;;9.13;1.52;;;;;;;19.18;30.54;100580.19;5105174;28;20085;-68
2022/05/02 10:45:35;;;;;;;7.40;3.17;;;;;;;19.47;30.05;100574.59;5105007;28;20039;-68
2022/05/02 10:48:22;;;;;;;4.80;1.10;;;;;;;19.35;29.91;100570.69;5105157;28;20030;-69
2022/05/02 10:51:12;;;;;;;4.95;1.33;;;;;;;18.54;30.35;100572.19;5105120;28;20044;-67
2022/05/02 10:53:58;;;;;;;5.30;1.15;;;;;;;17.21;32.04;100578.66;5104351;28;20024;-67
2022/05/02 10:56:34;;;;;;;7.47;1.83;;;;;;;16.41;34.10;100568.00;5105186;28;20027;-69
2022/05/02 10:59:02;;;;;;;7.40;1.58;;;;;;;15.87;35.07;100573.03;5105127;28;20035;-69
2022/05/02 11:01:46;;;;;;;5.38;1.63;;;;;;;15.56;35.18;100582.56;5104791;28;20063;-69
2022/05/02 11:04:40;;;;;;;4.60;1.90;;;;;;;15.27;36.57;100578.94;5104806;28;20075;-69
2022/05/02 11:07:27;;;;;;;12.38;1.83;;;;;;;15.17;37.20;100582.69;5104506;28;20028;-67
2022/05/02 11:09:55;;;;;;;5.03;1.67;;;;;;;15.17;37.79;100574.84;5104917;28;20032;-69
2022/05/02 11:12:36;;;;;;;10.93;1.42;;;;;;;15.02;38.57;100569.09;5104598;28;20060;-68
2022/05/02 11:15:23;;;;;;;7.10;1.73;;;;;;;14.79;39.60;100572.25;5104750;28;20031;-67
2022/05/02 11:20:41;;;;;;;6.28;1.65;;;;;;;14.79;39.97;100565.28;5104613;28;20024;-66
2022/05/02 11:21:11;;;;;;;10.43;1.60;;;;;;;14.78;40.37;100563.53;5104386;28;20091;-67
2022/05/02 11:24:04;;;;;;;6.55;1.52;;;;;;;14.83;40.49;100569.56;5104550;28;20024;-69
2022/05/02 11:26:37;;;;;;;10.20;1.80;;;;;;;14.74;41.00;100567.13;5104478;28;20364;-67
2022/05/02 11:29:31;;;;;;;4.75;1.35;;;;;;;14.51;41.87;100568.50;5104388;28;20023;-67
2022/05/02 11:32:01;;;;;;;8.38;1.90;;;;;;;14.23;42.93;100561.28;5104333;28;20126;-69
2022/05/02 11:34:50;;;;;;;6.47;1.40;;;;;;;14.16;43.42;100570.13;5104475;28;20028;-68
2022/05/02 11:37:36;;;;;;;11.07;1.30;;;;;;;13.89;44.01;100570.66;5093057;28;20053;-68
2022/05/02 11:40:06;;;;;;;7.47;1.65;;;;;;;13.82;45.28;100567.31;5104365;28;20058;-68
2022/05/02 11:42:33;;;;;;;12.77;1.67;;;;;;;13.69;45.76;100568.44;5104098;28;20051;-68
2022/05/02 11:45:12;;;;;;;7.35;1.85;;;;;;;13.38;46.46;100573.28;5104382;28;20075;-69
2022/05/02 11:48:03;;;;;;;7.68;2.80;;;;;;;13.22;47.94;100583.13;5104242;28;20020;-68
2022/05/02 11:50:37;;;;;;;14.40;2.40;;;;;;;13.20;48.34;100560.56;5102467;28;20460;-69
2022/05/02 11:53:09;;;;;;;7.32;1.60;;;;;;;13.21;48.75;100560.53;5104029;28;20115;-69
2022/05/02 11:55:35;;;;;;;6.40;2.17;;;;;;;13.26;48.73;100561.31;5104177;28;20023;-69
2022/05/02 11:58:08;;;;;;;11.35;3.15;;;;;;;13.30;48.58;100563.88;5103874;28;20028;-67
2022/05/02 12:00:36;;;;;;;9.55;1.70;;;;;;;13.48;48.83;100571.38;5104207;28;20027;-68
2022/05/02 12:03:14;;;;;;;8.02;1.73;;;;;;;13.69;48.29;100555.41;5103944;28;20028;-67
2022/05/02 12:05:42;;;;;;;6.88;1.80;;;;;;;13.88;47.57;100555.91;5103011;28;20031;-68
2022/05/02 12:08:09;;;;;;;9.35;1.65;;;;;;;13.93;46.89;100548.81;5103549;28;20549;-68
2022/05/02 12:10:47;;;;;;;6.45;1.90;;;;;;;13.86;46.89;100557.66;5103862;28;20035;-68
2022/05/02 12:13:15;;;;;;;4.78;1.63;;;;;;;13.79;47.14;100540.41;5103833;28;20371;-68
2022/05/02 12:15:53;;;;;;;7.68;1.27;;;;;;;13.74;46.59;100543.09;5104144;28;20177;-68
2022/05/02 12:18:19;;;;;;;5.65;1.98;;;;;;;13.64;46.74;100539.84;5103801;28;20529;-69
2022/05/02 12:20:54;;;;;;;7.13;2.47;;;;;;;13.60;46.83;100533.81;5104108;28;20044;-68